Time;durP1;ratioP1;P1;durP2;ratioP2;P2;SDS_P1;SDS_P2;PMS_P1;PMS_P2;Temp;Humidity;BMP_temperature;BMP_pressure;BME280_temperature;BME280_humidity;BME280_pressure;Samples;Min_cycle;Max_cycle;Signal;HPM_P1;HPM_P2
2023/07/11 00:02:22;;;;;;;4.27;3.87;;;19.10;99.90;;;;;;5049249;28;20464;-71
2023/07/11 00:04:47;;;;;;;5.23;4.27;;;19.20;99.90;;;;;;5050188;28;20190;-71
2023/07/11 00:07:13;;;;;;;4.60;4.20;;;19.20;99.90;;;;;;5049898;28;20678;-71
2023/07/11 00:09:38;;;;;;;6.30;3.70;;;19.20;99.90;;;;;;5050514;28;20671;-71
2023/07/11 00:12:05;;;;;;;4.07;3.77;;;19.30;99.90;;;;;;5049768;28;20193;-71
2023/07/11 00:14:30;;;;;;;4.00;3.70;;;19.40;99.90;;;;;;5050264;28;20193;-71
2023/07/11 00:16:56;;;;;;;4.17;3.77;;;19.50;99.90;;;;;;5049800;28;20444;-71
2023/07/11 00:19:22;;;;;;;4.33;3.60;;;19.60;99.90;;;;;;5048893;28;20276;-71
2023/07/11 00:21:47;;;;;;;4.23;3.73;;;19.60;99.90;;;;;;5049805;28;20224;-71
2023/07/11 00:24:13;;;;;;;4.07;3.50;;;19.50;99.90;;;;;;5049622;28;20192;-71
2023/07/11 00:26:39;;;;;;;4.13;3.70;;;19.50;99.90;;;;;;5049405;28;20225;-71
2023/07/11 00:29:18;;;;;;;7.67;4.27;;;19.50;99.90;;;;;;5052972;28;20189;-71
2023/07/11 00:31:44;;;;;;;6.20;3.83;;;19.50;99.90;;;;;;5044308;28;20311;-71
2023/07/11 00:34:10;;;;;;;5.43;4.17;;;19.50;99.90;;;;;;5049406;28;20492;-71
2023/07/11 00:36:35;;;;;;;4.80;3.90;;;19.50;99.90;;;;;;5049212;28;20228;-71
2023/07/11 00:39:02;;;;;;;4.33;3.93;;;19.50;99.90;;;;;;5049730;28;20640;-71
2023/07/11 00:41:28;;;;;;;4.47;3.53;;;19.50;99.90;;;;;;5049734;28;20202;-71
2023/07/11 00:43:54;;;;;;;5.23;3.70;;;19.50;99.90;;;;;;5049037;28;20447;-71
2023/07/11 00:46:19;;;;;;;4.63;3.33;;;19.50;99.90;;;;;;5049039;28;20209;-71
2023/07/11 00:49:00;;;;;;;4.00;3.70;;;19.60;99.90;;;;;;5049904;28;20319;-71
2023/07/11 00:51:33;;;;;;;6.80;3.83;;;19.50;99.90;;;;;;5049698;28;20329;-71
2023/07/11 00:53:59;;;;;;;3.60;3.30;;;19.50;99.90;;;;;;5049240;28;20465;-71
2023/07/11 00:56:30;;;;;;;3.80;3.50;;;19.50;99.90;;;;;;5049398;28;20502;-71
2023/07/11 00:58:57;;;;;;;7.00;3.97;;;19.50;99.90;;;;;;5048379;28;20412;-71
2023/07/11 01:01:23;;;;;;;4.00;3.70;;;19.40;99.90;;;;;;5049591;28;20456;-71
2023/07/11 01:03:51;;;;;;;4.60;3.47;;;19.30;99.90;;;;;;5049326;28;20434;-71
2023/07/11 01:06:20;;;;;;;4.77;3.47;;;19.30;99.90;;;;;;5049024;28;20436;-71
2023/07/11 01:08:49;;;;;;;3.30;2.93;;;19.30;99.90;;;;;;5049243;28;20428;-71
2023/07/11 01:11:16;;;;;;;3.43;3.13;;;19.20;99.90;;;;;;5049312;28;20446;-71
2023/07/11 01:13:42;;;;;;;5.37;3.67;;;19.30;99.90;;;;;;5048814;28;20531;-71
2023/07/11 01:16:08;;;;;;;3.53;3.13;;;19.40;99.90;;;;;;5049139;28;21020;-71
2023/07/11 01:18:34;;;;;;;3.30;3.00;;;19.20;99.90;;;;;;5049097;28;20177;-71
2023/07/11 01:21:00;;;;;;;3.37;2.87;;;19.20;99.90;;;;;;5049348;28;20536;-71
2023/07/11 01:23:26;;;;;;;3.40;2.97;;;19.20;99.90;;;;;;5048580;28;20884;-71
2023/07/11 01:26:03;;;;;;;3.53;2.80;;;19.20;99.90;;;;;;5048945;28;20589;-71
2023/07/11 01:28:29;;;;;;;2.93;2.73;;;19.20;99.90;;;;;;5048917;28;20451;-71
2023/07/11 01:30:54;;;;;;;3.00;2.70;;;19.20;99.90;;;;;;5049112;28;20448;-71
2023/07/11 01:33:24;;;;;;;3.30;3.00;;;19.30;99.90;;;;;;5048487;28;20205;-71
2023/07/11 01:35:52;;;;;;;6.87;3.83;;;19.30;99.90;;;;;;5048764;28;20313;-71
2023/07/11 01:38:19;;;;;;;4.30;2.97;;;19.20;99.90;;;;;;5048789;28;20412;-71
2023/07/11 01:40:45;;;;;;;3.30;2.57;;;19.30;99.90;;;;;;5048228;28;20444;-71
2023/07/11 01:43:11;;;;;;;3.10;2.80;;;19.30;99.90;;;;;;5048272;28;20404;-71
2023/07/11 01:45:36;;;;;;;4.90;3.50;;;19.30;99.90;;;;;;5048479;28;20428;-71
2023/07/11 01:48:02;;;;;;;5.40;3.37;;;19.20;99.90;;;;;;5048569;28;20166;-71
2023/07/11 01:50:28;;;;;;;3.17;2.77;;;19.20;99.90;;;;;;5048918;28;20522;-71
2023/07/11 01:52:53;;;;;;;4.00;3.30;;;19.20;99.90;;;;;;5048371;28;20174;-71
2023/07/11 01:55:19;;;;;;;6.27;3.30;;;19.20;99.90;;;;;;5048430;28;20174;-71
2023/07/11 01:57:45;;;;;;;2.83;2.50;;;19.20;99.90;;;;;;5048768;28;20161;-71
2023/07/11 02:00:11;;;;;;;3.70;2.90;;;19.20;99.90;;;;;;5048476;28;20178;-71
2023/07/11 02:02:37;;;;;;;5.30;2.73;;;19.20;99.90;;;;;;5048019;28;20563;-72
2023/07/11 02:05:03;;;;;;;3.93;2.63;;;19.20;99.90;;;;;;5048048;28;20487;-72
2023/07/11 02:07:29;;;;;;;3.53;2.53;;;19.20;99.90;;;;;;5048310;28;20186;-72
2023/07/11 02:09:54;;;;;;;3.70;2.70;;;19.20;99.90;;;;;;5048407;28;20658;-72
2023/07/11 02:12:20;;;;;;;3.00;2.53;;;19.20;99.90;;;;;;5048110;28;20423;-71
2023/07/11 02:14:46;;;;;;;4.57;2.70;;;19.20;99.90;;;;;;5047920;28;20657;-72
2023/07/11 02:17:14;;;;;;;3.93;3.00;;;19.20;99.90;;;;;;5048211;28;20220;-72
2023/07/11 02:19:41;;;;;;;3.93;3.17;;;19.20;99.90;;;;;;5048227;28;20405;-71
2023/07/11 02:22:08;;;;;;;3.10;2.80;;;19.30;99.90;;;;;;5047909;28;20965;-72
2023/07/11 02:24:33;;;;;;;4.93;2.80;;;19.30;99.90;;;;;;5048160;28;20417;-72
2023/07/11 02:26:59;;;;;;;2.43;2.23;;;19.30;99.90;;;;;;5048087;28;20447;-72
2023/07/11 02:29:25;;;;;;;3.07;2.60;;;19.30;99.90;;;;;;5047871;28;20174;-72
2023/07/11 02:31:51;;;;;;;5.40;2.77;;;19.30;99.90;;;;;;5048208;28;21152;-69
2023/07/11 02:34:17;;;;;;;4.40;2.57;;;19.30;99.90;;;;;;5047812;28;20174;-70
2023/07/11 02:36:43;;;;;;;4.30;2.67;;;19.30;99.90;;;;;;5047847;28;20199;-70
2023/07/11 02:39:08;;;;;;;7.40;3.30;;;19.30;99.90;;;;;;5047969;28;20442;-69
2023/07/11 02:41:34;;;;;;;5.50;2.90;;;19.30;99.90;;;;;;5048185;28;20288;-72
2023/07/11 02:44:00;;;;;;;4.07;2.90;;;19.30;99.90;;;;;;5046298;28;20648;-72
2023/07/11 02:46:26;;;;;;;5.07;2.40;;;19.30;99.90;;;;;;5047691;28;20198;-72
2023/07/11 02:48:51;;;;;;;3.87;2.60;;;19.30;99.90;;;;;;5048247;28;20681;-70
2023/07/11 02:51:17;;;;;;;4.97;2.73;;;19.20;99.90;;;;;;5048006;28;20494;-70
2023/07/11 02:53:43;;;;;;;6.07;3.37;;;19.30;99.90;;;;;;5051475;28;20225;-70
2023/07/11 02:56:09;;;;;;;3.40;2.50;;;19.20;99.90;;;;;;5051654;28;20524;-70
2023/07/11 02:58:35;;;;;;;4.00;2.70;;;19.20;99.90;;;;;;5051664;28;20312;-70
2023/07/11 03:01:02;;;;;;;3.17;2.67;;;19.10;99.90;;;;;;5051842;28;20266;-70
2023/07/11 03:03:28;;;;;;;2.50;2.30;;;19.20;99.90;;;;;;5051392;28;20173;-70
2023/07/11 03:05:55;;;;;;;4.87;2.70;;;19.10;99.90;;;;;;5051642;28;20761;-70
2023/07/11 03:08:21;;;;;;;3.73;3.00;;;19.20;99.90;;;;;;5051696;28;20200;-70
2023/07/11 03:10:47;;;;;;;3.37;2.50;;;19.20;99.90;;;;;;5051644;28;20795;-70
2023/07/11 03:13:13;;;;;;;2.93;2.57;;;19.20;99.90;;;;;;5049819;28;20946;-70
2023/07/11 03:15:39;;;;;;;2.87;2.30;;;19.30;99.90;;;;;;5051300;28;20436;-70
2023/07/11 03:18:06;;;;;;;3.17;2.30;;;19.30;99.90;;;;;;5051507;28;20231;-70
2023/07/11 03:20:39;;;;;;;3.30;2.30;;;19.30;99.90;;;;;;5051387;28;20506;-70
2023/07/11 03:23:06;;;;;;;3.33;2.50;;;19.30;99.90;;;;;;5051195;28;20396;-70
2023/07/11 03:25:32;;;;;;;3.50;2.40;;;19.30;99.90;;;;;;5049762;28;20450;-70
2023/07/11 03:27:57;;;;;;;2.50;2.30;;;19.30;99.90;;;;;;5051388;28;20767;-70
2023/07/11 03:30:23;;;;;;;4.87;3.00;;;19.30;99.90;;;;;;5051264;28;20231;-70
2023/07/11 03:32:49;;;;;;;3.97;3.17;;;19.30;99.90;;;;;;5051032;28;20651;-70
2023/07/11 03:35:15;;;;;;;3.23;2.93;;;19.30;99.90;;;;;;5050844;28;20177;-70
2023/07/11 03:37:40;;;;;;;4.90;3.10;;;19.20;99.90;;;;;;5051253;28;20174;-70
2023/07/11 03:40:07;;;;;;;2.90;2.53;;;19.20;99.90;;;;;;5051106;28;20174;-71
2023/07/11 03:42:32;;;;;;;3.93;3.00;;;19.20;99.90;;;;;;5049329;28;20208;-70
2023/07/11 03:44:58;;;;;;;2.63;2.43;;;19.20;99.90;;;;;;5050837;28;20416;-70
2023/07/11 03:47:24;;;;;;;3.70;2.53;;;19.20;99.90;;;;;;5051258;28;20200;-71
2023/07/11 03:49:49;;;;;;;3.27;2.80;;;19.30;99.90;;;;;;5051069;28;20173;-71
2023/07/11 03:52:15;;;;;;;3.67;2.90;;;19.20;99.90;;;;;;5049352;28;20660;-70
2023/07/11 03:54:41;;;;;;;3.43;2.57;;;19.30;99.90;;;;;;5050553;28;20184;-71
2023/07/11 03:57:06;;;;;;;3.23;2.90;;;19.30;99.90;;;;;;5050821;28;20563;-70
2023/07/11 03:59:32;;;;;;;3.73;3.07;;;19.30;99.90;;;;;;5049494;28;20543;-70
2023/07/11 04:01:58;;;;;;;7.93;3.37;;;19.40;99.90;;;;;;5050495;28;20202;-71
2023/07/11 04:04:24;;;;;;;5.90;2.50;;;19.40;99.90;;;;;;5048226;28;20182;-70
2023/07/11 04:06:50;;;;;;;3.77;2.77;;;19.40;99.90;;;;;;5050272;28;20439;-71
2023/07/11 04:09:15;;;;;;;3.27;2.90;;;19.50;99.90;;;;;;5050393;28;20198;-71
2023/07/11 04:11:41;;;;;;;3.47;3.03;;;19.50;99.90;;;;;;5050645;28;20299;-71
2023/07/11 04:14:10;;;;;;;4.57;2.70;;;19.50;99.90;;;;;;5050143;28;20178;-71
2023/07/11 04:16:35;;;;;;;3.60;2.83;;;19.50;99.90;;;;;;5050037;28;20204;-71
2023/07/11 04:19:02;;;;;;;3.50;3.20;;;19.50;99.90;;;;;;5050565;28;20409;-70
2023/07/11 04:21:28;;;;;;;9.13;3.30;;;19.50;99.90;;;;;;5050269;28;20259;-70
2023/07/11 04:23:53;;;;;;;3.90;2.80;;;19.60;99.90;;;;;;5048756;28;20440;-71
2023/07/11 04:26:19;;;;;;;4.43;3.47;;;19.60;99.90;;;;;;5049736;28;20487;-70
2023/07/11 04:28:45;;;;;;;4.73;3.00;;;19.50;99.90;;;;;;5050340;28;20178;-71
2023/07/11 04:31:10;;;;;;;3.50;3.00;;;19.50;99.90;;;;;;5048818;28;20699;-70
2023/07/11 04:33:36;;;;;;;3.20;2.57;;;19.50;99.90;;;;;;5050036;28;20186;-71
2023/07/11 04:36:11;;;;;;;2.80;2.40;;;19.60;99.90;;;;;;5049674;28;20197;-71
2023/07/11 04:38:37;;;;;;;3.70;2.97;;;19.60;99.90;;;;;;5050060;28;20720;-70
2023/07/11 04:41:04;;;;;;;3.43;2.50;;;19.60;99.90;;;;;;5049834;28;21040;-70
2023/07/11 04:43:31;;;;;;;5.10;2.90;;;19.60;99.90;;;;;;5049724;28;20408;-70
2023/07/11 04:45:57;;;;;;;2.80;2.60;;;19.70;99.90;;;;;;5049456;28;20485;-70
2023/07/11 04:48:23;;;;;;;3.33;2.80;;;19.80;99.90;;;;;;5049996;28;20462;-70
2023/07/11 04:50:56;;;;;;;4.13;3.07;;;19.80;99.90;;;;;;5048505;28;20881;-70
2023/07/11 04:53:22;;;;;;;4.13;2.90;;;19.90;99.90;;;;;;5049640;28;20571;-70
2023/07/11 04:55:54;;;;;;;3.97;2.47;;;20.00;99.90;;;;;;5048268;28;21012;-70
2023/07/11 04:58:20;;;;;;;5.73;2.90;;;20.10;99.90;;;;;;5049804;28;20170;-71
2023/07/11 05:00:45;;;;;;;3.87;3.10;;;20.10;99.90;;;;;;5049413;28;20438;-71
2023/07/11 05:03:11;;;;;;;3.80;3.00;;;20.20;99.90;;;;;;5045043;28;20183;-71
2023/07/11 05:05:37;;;;;;;4.00;2.53;;;20.20;99.90;;;;;;5043137;28;20290;-71
2023/07/11 05:08:03;;;;;;;3.67;3.33;;;20.30;99.90;;;;;;5049005;28;20196;-70
2023/07/11 05:10:28;;;;;;;4.57;2.90;;;20.40;99.90;;;;;;5047617;28;20185;-71
2023/07/11 05:12:54;;;;;;;4.93;3.07;;;20.40;99.90;;;;;;5048966;28;20185;-70
2023/07/11 05:15:19;;;;;;;5.47;3.00;;;20.50;99.90;;;;;;5048739;28;20185;-71
2023/07/11 05:17:45;;;;;;;3.53;2.80;;;20.60;99.90;;;;;;5049305;28;20565;-71
2023/07/11 05:20:11;;;;;;;3.00;2.70;;;20.60;99.90;;;;;;5049198;28;20188;-71
2023/07/11 05:22:37;;;;;;;5.10;3.00;;;20.60;99.90;;;;;;5048876;28;20557;-71
2023/07/11 05:25:04;;;;;;;5.63;2.90;;;20.80;99.90;;;;;;5048702;28;20412;-71
2023/07/11 05:27:30;;;;;;;4.57;2.50;;;20.80;99.90;;;;;;5051453;28;20431;-70
2023/07/11 05:29:56;;;;;;;3.67;2.93;;;20.90;99.90;;;;;;5057771;28;20483;-70
2023/07/11 05:32:22;;;;;;;8.60;3.30;;;21.00;99.90;;;;;;5064066;28;20420;-71
2023/07/11 05:34:48;;;;;;;5.07;2.77;;;21.10;99.90;;;;;;5048906;28;20172;-70
2023/07/11 05:37:14;;;;;;;3.83;3.27;;;21.10;99.90;;;;;;5048925;28;20202;-71
2023/07/11 05:39:39;;;;;;;5.07;3.20;;;21.20;99.90;;;;;;5081328;28;20412;-70
2023/07/11 05:42:05;;;;;;;5.20;3.10;;;21.30;99.90;;;;;;5048500;28;20201;-71
2023/07/11 05:44:31;;;;;;;7.90;3.30;;;21.40;99.90;;;;;;5048096;28;20177;-70
2023/07/11 05:46:57;;;;;;;3.80;3.13;;;21.40;99.90;;;;;;5047309;28;20948;-71
2023/07/11 05:49:23;;;;;;;5.03;2.90;;;21.50;99.90;;;;;;5048394;28;20408;-70
2023/07/11 05:51:49;;;;;;;4.00;2.53;;;21.60;99.90;;;;;;5048083;28;20177;-70
2023/07/11 05:54:15;;;;;;;2.83;2.47;;;21.70;99.90;;;;;;5071891;28;20181;-71
2023/07/11 05:56:41;;;;;;;4.37;3.27;;;21.80;99.90;;;;;;5048480;28;20846;-70
2023/07/11 05:59:07;;;;;;;3.33;3.03;;;21.90;99.90;;;;;;5048711;28;20261;-71
2023/07/11 06:01:32;;;;;;;3.57;2.70;;;22.10;99.90;;;;;;5048010;28;20551;-71
2023/07/11 06:04:04;;;;;;;3.10;2.80;;;22.20;99.90;;;;;;5048500;28;20535;-71
2023/07/11 06:06:30;;;;;;;3.10;2.80;;;22.30;99.90;;;;;;5048293;28;20444;-70
2023/07/11 06:08:55;;;;;;;11.13;3.10;;;22.40;99.90;;;;;;5048732;28;20482;-70
2023/07/11 06:11:21;;;;;;;2.93;2.70;;;22.60;99.90;;;;;;5048667;28;20264;-70
2023/07/11 06:13:47;;;;;;;4.73;3.20;;;22.70;99.90;;;;;;5045718;28;20240;-70
2023/07/11 06:16:16;;;;;;;4.13;2.63;;;22.80;99.90;;;;;;5046378;28;20296;-70
2023/07/11 06:18:42;;;;;;;3.30;3.00;;;22.70;99.90;;;;;;5046475;28;20186;-70
2023/07/11 06:21:10;;;;;;;4.87;3.13;;;22.80;99.90;;;;;;5048075;28;20460;-70
2023/07/11 06:23:36;;;;;;;3.70;2.50;;;22.70;99.90;;;;;;5042167;28;20429;-70
2023/07/11 06:26:03;;;;;;;3.23;2.70;;;22.80;99.90;;;;;;5047298;28;20447;-70
2023/07/11 06:28:30;;;;;;;3.27;2.97;;;22.90;99.90;;;;;;5056666;28;20416;-70
2023/07/11 06:30:57;;;;;;;2.97;2.60;;;22.90;99.90;;;;;;5053996;28;20416;-70
2023/07/11 06:33:23;;;;;;;4.73;3.00;;;22.90;99.90;;;;;;5054424;28;20452;-70
2023/07/11 06:35:50;;;;;;;4.13;3.23;;;23.00;99.90;;;;;;5053060;28;20466;-70
2023/07/11 06:38:17;;;;;;;2.93;2.63;;;23.10;99.90;;;;;;5053839;28;20272;-70
2023/07/11 06:40:54;;;;;;;4.57;3.27;;;23.10;99.90;;;;;;5054057;28;20420;-70
2023/07/11 06:43:21;;;;;;;3.77;3.33;;;23.10;99.90;;;;;;5053939;28;20435;-70
2023/07/11 06:45:48;;;;;;;4.20;3.33;;;23.20;99.90;;;;;;5054661;28;20799;-70
2023/07/11 06:48:18;;;;;;;3.60;3.10;;;23.20;99.90;;;;;;5054235;28;20420;-70
2023/07/11 06:50:50;;;;;;;4.03;3.63;;;23.30;99.90;;;;;;5055211;28;20405;-69
2023/07/11 06:53:17;;;;;;;5.70;3.20;;;23.30;99.90;;;;;;5052766;28;20412;-70
2023/07/11 06:55:47;;;;;;;5.10;3.47;;;23.30;99.90;;;;;;5053400;28;20477;-70
2023/07/11 06:58:14;;;;;;;3.50;2.73;;;23.40;99.90;;;;;;5054702;28;20405;-70
2023/07/11 07:00:40;;;;;;;7.00;3.43;;;23.50;99.90;;;;;;5054597;28;20803;-70
2023/07/11 07:03:07;;;;;;;3.13;2.83;;;23.50;99.90;;;;;;5054064;28;20442;-70
2023/07/11 07:05:33;;;;;;;3.30;3.00;;;23.60;99.90;;;;;;5054387;28;20424;-70
2023/07/11 07:07:59;;;;;;;3.63;3.33;;;23.70;99.90;;;;;;5054617;28;20570;-70
2023/07/11 07:10:24;;;;;;;5.10;2.77;;;23.70;99.90;;;;;;5054595;28;20565;-70
2023/07/11 07:12:51;;;;;;;3.20;2.77;;;23.80;99.90;;;;;;5053700;28;20225;-70
2023/07/11 07:15:17;;;;;;;10.83;3.40;;;23.90;99.90;;;;;;5054195;28;20456;-70
2023/07/11 07:17:42;;;;;;;3.23;2.93;;;23.90;99.90;;;;;;5054591;28;20185;-70
2023/07/11 07:20:09;;;;;;;4.20;3.47;;;24.00;99.90;;;;;;5054620;28;20686;-70
2023/07/11 07:22:35;;;;;;;3.30;2.83;;;24.00;99.90;;;;;;5053859;28;20215;-71
2023/07/11 07:25:00;;;;;;;4.20;2.57;;;24.10;99.90;;;;;;5054284;28;20407;-70
2023/07/11 07:27:26;;;;;;;3.20;2.90;;;24.10;99.90;;;;;;5055977;28;20225;-70
2023/07/11 07:29:52;;;;;;;4.47;3.43;;;24.20;99.90;;;;;;5074542;28;20177;-70
2023/07/11 07:32:18;;;;;;;4.33;3.43;;;24.30;99.90;;;;;;5074056;28;20254;-70
2023/07/11 07:34:43;;;;;;;2.90;2.63;;;24.40;99.90;;;;;;5074286;28;20498;-70
2023/07/11 07:37:09;;;;;;;3.10;2.90;;;24.40;99.90;;;;;;5074588;28;20201;-70
2023/07/11 07:39:35;;;;;;;5.23;3.17;;;24.50;99.90;;;;;;5061053;28;20198;-70
2023/07/11 07:42:00;;;;;;;4.90;2.93;;;24.60;99.90;;;;;;5050847;28;20251;-70
2023/07/11 07:44:26;;;;;;;3.73;3.00;;;24.70;99.90;;;;;;5050762;28;20807;-70
2023/07/11 07:46:51;;;;;;;4.30;3.10;;;24.70;99.90;;;;;;5050720;28;20198;-70
2023/07/11 07:49:17;;;;;;;4.23;3.33;;;24.80;99.90;;;;;;5050993;28;20228;-70
2023/07/11 07:51:43;;;;;;;4.77;3.00;;;24.80;99.90;;;;;;5050968;28;20256;-71
2023/07/11 07:54:08;;;;;;;3.80;3.50;;;24.80;99.90;;;;;;5050578;28;20250;-71
2023/07/11 07:56:35;;;;;;;4.50;3.00;;;24.90;99.90;;;;;;5049679;28;20202;-70
2023/07/11 07:59:01;;;;;;;3.30;3.00;;;24.90;99.90;;;;;;5050783;28;20189;-70
2023/07/11 08:01:27;;;;;;;3.50;3.20;;;24.90;99.90;;;;;;5050636;28;20468;-70
2023/07/11 08:03:53;;;;;;;4.20;3.00;;;25.00;99.80;;;;;;5050310;28;20418;-70
2023/07/11 08:06:19;;;;;;;3.40;2.60;;;25.00;99.50;;;;;;5050306;28;20197;-70
2023/07/11 08:08:49;;;;;;;3.20;2.47;;;24.90;99.10;;;;;;5050588;28;20722;-70
2023/07/11 08:11:18;;;;;;;5.40;2.70;;;24.90;99.60;;;;;;5050502;28;20987;-70
2023/07/11 08:13:44;;;;;;;4.73;3.10;;;24.90;99.90;;;;;;5050171;28;20845;-70
2023/07/11 08:16:10;;;;;;;3.60;2.50;;;25.00;99.90;;;;;;5050188;28;21086;-70
2023/07/11 08:18:35;;;;;;;3.97;3.07;;;25.00;99.90;;;;;;5050507;28;20421;-70
2023/07/11 08:21:01;;;;;;;5.23;2.97;;;25.00;99.90;;;;;;5050514;28;20263;-70
2023/07/11 08:23:27;;;;;;;3.00;2.70;;;25.00;99.90;;;;;;5049988;28;20174;-70
2023/07/11 08:25:54;;;;;;;3.40;3.07;;;25.10;99.90;;;;;;5049754;28;20205;-70
2023/07/11 08:28:20;;;;;;;3.80;3.13;;;25.10;99.90;;;;;;5050074;28;20236;-70
2023/07/11 08:30:46;;;;;;;3.33;2.90;;;25.20;99.90;;;;;;5049184;28;20413;-70
2023/07/11 08:33:12;;;;;;;6.03;2.67;;;25.20;99.80;;;;;;5049823;28;20272;-70
2023/07/11 08:35:37;;;;;;;2.83;2.50;;;25.30;99.70;;;;;;5049835;28;20435;-70
2023/07/11 08:38:06;;;;;;;3.10;2.83;;;25.30;98.80;;;;;;5050067;28;20182;-71
2023/07/11 08:40:38;;;;;;;5.90;3.43;;;25.30;98.90;;;;;;5050360;28;20190;-70
2023/07/11 08:43:05;;;;;;;5.03;3.23;;;25.30;99.00;;;;;;5049658;28;20917;-70
2023/07/11 08:45:38;;;;;;;5.37;2.70;;;25.30;99.10;;;;;;5049860;28;20416;-70
2023/07/11 08:48:22;;;;;;;3.87;3.10;;;25.30;99.20;;;;;;5049923;28;20408;-70
2023/07/11 08:51:21;;;;;;;4.13;2.77;;;25.30;99.20;;;;;;5049627;28;20484;-70
2023/07/11 08:54:09;;;;;;;3.60;2.63;;;25.30;98.90;;;;;;5049278;28;20401;-70
2023/07/11 08:56:47;;;;;;;4.20;3.13;;;25.50;98.80;;;;;;5049401;28;20479;-70
2023/07/11 08:59:34;;;;;;;4.63;2.40;;;25.50;99.20;;;;;;5049566;28;20913;-70
2023/07/11 09:02:08;;;;;;;4.13;3.70;;;25.70;98.30;;;;;;5049294;28;20455;-70
2023/07/11 09:04:38;;;;;;;6.47;3.30;;;25.80;98.90;;;;;;5049672;28;20636;-70
2023/07/11 09:07:33;;;;;;;6.53;3.87;;;25.90;98.80;;;;;;5049377;28;20428;-70
2023/07/11 09:09:59;;;;;;;3.87;3.00;;;26.00;97.90;;;;;;5049444;28;20416;-70
2023/07/11 09:12:57;;;;;;;4.80;3.07;;;26.10;97.60;;;;;;5049273;28;20897;-70
2023/07/11 09:15:35;;;;;;;3.70;2.60;;;26.20;97.10;;;;;;5029061;28;20204;-70
2023/07/11 09:18:16;;;;;;;3.57;2.80;;;26.20;97.70;;;;;;5029459;28;20421;-70
2023/07/11 09:21:12;;;;;;;5.90;3.17;;;26.30;96.70;;;;;;5029180;28;20776;-70
2023/07/11 09:24:00;;;;;;;5.23;2.57;;;26.40;96.80;;;;;;5028931;28;20432;-70
2023/07/11 09:26:44;;;;;;;3.70;2.93;;;26.50;96.80;;;;;;5028898;28;20427;-70
2023/07/11 09:29:10;;;;;;;4.60;2.80;;;26.70;96.20;;;;;;5061510;28;20497;-70
2023/07/11 09:31:50;;;;;;;7.33;3.17;;;26.70;96.30;;;;;;5069148;28;20494;-70
2023/07/11 09:34:22;;;;;;;5.20;3.43;;;26.80;96.70;;;;;;5068529;28;20422;-70
2023/07/11 09:36:49;;;;;;;5.40;3.10;;;27.00;96.60;;;;;;5068795;28;20431;-70
2023/07/11 09:39:39;;;;;;;7.80;3.17;;;27.00;95.30;;;;;;5068739;28;20502;-70
2023/07/11 09:42:36;;;;;;;3.30;3.00;;;27.10;96.00;;;;;;5068578;28;20793;-71
2023/07/11 09:45:16;;;;;;;3.43;2.93;;;27.10;96.00;;;;;;5060069;28;20412;-70
2023/07/11 09:47:47;;;;;;;5.47;3.20;;;27.20;94.90;;;;;;5068794;28;20399;-71
2023/07/11 09:50:40;;;;;;;3.60;2.80;;;27.20;94.70;;;;;;5067355;28;20785;-70
2023/07/11 09:53:13;;;;;;;8.20;3.50;;;27.30;95.30;;;;;;5068258;28;21000;-71
2023/07/11 09:55:40;;;;;;;4.10;3.70;;;27.30;95.00;;;;;;5066940;28;20463;-71
2023/07/11 09:58:11;;;;;;;6.07;2.70;;;27.20;95.00;;;;;;5068667;28;20408;-71
2023/07/11 10:00:47;;;;;;;4.20;3.80;;;27.20;95.20;;;;;;5068602;28;20407;-71
2023/07/11 10:03:24;;;;;;;4.70;3.17;;;27.00;95.40;;;;;;5067660;28;20493;-71
2023/07/11 10:05:52;;;;;;;5.00;3.80;;;26.90;95.10;;;;;;5068196;28;20415;-71
2023/07/11 10:08:20;;;;;;;5.63;2.70;;;26.80;94.80;;;;;;5068300;28;20510;-71
2023/07/11 10:10:54;;;;;;;5.20;3.30;;;27.00;95.60;;;;;;5067169;28;20423;-71
2023/07/11 10:13:21;;;;;;;4.43;2.60;;;27.10;96.10;;;;;;5061648;28;20970;-71
2023/07/11 10:15:55;;;;;;;3.93;3.43;;;27.20;95.40;;;;;;5047889;28;20964;-71
2023/07/11 10:18:30;;;;;;;3.83;3.17;;;27.30;95.60;;;;;;5048389;28;20415;-71
2023/07/11 10:21:23;;;;;;;6.60;3.70;;;27.30;95.70;;;;;;5047002;28;20915;-71
2023/07/11 10:23:50;;;;;;;6.90;3.10;;;27.30;95.70;;;;;;5048107;28;20499;-71
2023/07/11 10:26:25;;;;;;;4.83;3.03;;;27.40;95.00;;;;;;5047838;28;20432;-71
2023/07/11 10:29:03;;;;;;;8.00;3.50;;;27.50;95.30;;;;;;5061984;28;20419;-71
2023/07/11 10:31:37;;;;;;;3.17;2.87;;;27.50;94.00;;;;;;5068539;28;20415;-71
2023/07/11 10:34:13;;;;;;;8.30;3.77;;;27.60;94.60;;;;;;5050621;28;20431;-71
2023/07/11 10:36:46;;;;;;;4.80;3.10;;;27.60;94.20;;;;;;5054484;28;20448;-71
2023/07/11 10:39:53;;;;;;;5.50;3.90;;;27.70;93.20;;;;;;5047503;28;20428;-71
2023/07/11 10:42:43;;;;;;;3.43;2.83;;;27.70;94.20;;;;;;4965205;28;20471;-71
2023/07/11 10:45:23;;;;;;;5.30;3.07;;;27.90;93.90;;;;;;5043117;28;20428;-71
2023/07/11 10:48:26;;;;;;;6.10;3.10;;;28.00;92.60;;;;;;5047826;28;20408;-71
2023/07/11 10:50:58;;;;;;;3.80;3.00;;;28.10;92.80;;;;;;5030936;28;20805;-71
2023/07/11 10:53:28;;;;;;;10.17;2.90;;;28.20;91.80;;;;;;5047156;28;20796;-71
2023/07/11 10:56:07;;;;;;;4.73;3.03;;;28.30;92.10;;;;;;5047064;28;20436;-70
2023/07/11 10:58:33;;;;;;;5.37;3.20;;;28.30;90.80;;;;;;5040980;28;20857;-70
2023/07/11 11:01:18;;;;;;;7.00;2.63;;;28.30;91.60;;;;;;5047593;28;21052;-70
2023/07/11 11:03:48;;;;;;;4.53;3.07;;;28.30;92.00;;;;;;5041665;28;20404;-70
2023/07/11 11:06:14;;;;;;;3.60;3.00;;;28.30;92.20;;;;;;5047169;28;20432;-70
2023/07/11 11:09:20;;;;;;;3.30;3.00;;;28.20;92.00;;;;;;5047554;28;20782;-71
2023/07/11 11:11:59;;;;;;;6.17;2.70;;;28.30;92.30;;;;;;5045259;28;20216;-70
2023/07/11 11:14:53;;;;;;;6.20;3.57;;;28.30;91.80;;;;;;5050609;28;20416;-70
2023/07/11 11:17:54;;;;;;;4.97;3.40;;;28.40;92.70;;;;;;5042628;28;20533;-70
2023/07/11 11:20:49;;;;;;;6.33;3.77;;;28.40;94.00;;;;;;5051475;28;20474;-70
2023/07/11 11:23:18;;;;;;;3.70;3.27;;;28.40;92.60;;;;;;5049572;28;20420;-70
2023/07/11 11:26:02;;;;;;;4.00;3.60;;;28.40;93.20;;;;;;5050879;28;20427;-70
2023/07/11 11:28:43;;;;;;;7.77;3.63;;;28.40;93.40;;;;;;5057623;28;20446;-71
2023/07/11 11:31:14;;;;;;;8.20;3.80;;;28.50;93.50;;;;;;5049012;28;20412;-70
2023/07/11 11:34:04;;;;;;;4.97;3.30;;;28.60;92.70;;;;;;5050578;28;20415;-70
2023/07/11 11:36:52;;;;;;;5.83;3.23;;;28.70;92.90;;;;;;5050599;28;20957;-70
2023/07/11 11:39:40;;;;;;;11.40;3.53;;;28.80;93.00;;;;;;5050670;28;20467;-70
2023/07/11 11:42:20;;;;;;;5.57;3.57;;;28.90;91.70;;;;;;5050411;28;20548;-71
2023/07/11 11:45:04;;;;;;;5.67;3.50;;;28.90;91.80;;;;;;5044185;28;20507;-70
2023/07/11 11:47:33;;;;;;;4.70;3.60;;;28.80;91.10;;;;;;5050812;28;20447;-71
2023/07/11 11:50:00;;;;;;;4.50;3.90;;;28.80;91.70;;;;;;5050741;28;20901;-71
2023/07/11 11:52:31;;;;;;;4.93;3.20;;;28.90;91.40;;;;;;5050153;28;20936;-71
2023/07/11 11:54:57;;;;;;;4.73;3.30;;;29.00;91.60;;;;;;5050597;28;20979;-70
2023/07/11 11:57:24;;;;;;;4.90;3.40;;;29.10;90.70;;;;;;5049290;28;20424;-71
2023/07/11 11:59:51;;;;;;;6.20;3.33;;;29.20;90.40;;;;;;5050629;28;20194;-70
2023/07/11 12:02:29;;;;;;;5.07;3.10;;;29.20;90.10;;;;;;5050014;28;20730;-70
2023/07/11 12:04:59;;;;;;;3.70;3.20;;;29.30;88.90;;;;;;5050301;28;20447;-71
2023/07/11 12:07:29;;;;;;;3.67;3.37;;;29.40;90.10;;;;;;5042105;28;20448;-70
2023/07/11 12:09:56;;;;;;;3.73;3.43;;;29.50;87.80;;;;;;5049227;28;20424;-71
2023/07/11 12:12:23;;;;;;;4.10;3.17;;;29.50;88.70;;;;;;5049852;28;20844;-71
2023/07/11 12:14:52;;;;;;;5.00;3.73;;;29.60;86.60;;;;;;5050190;28;20464;-71
2023/07/11 12:17:33;;;;;;;3.77;3.17;;;29.60;87.80;;;;;;5048648;28;20785;-71
2023/07/11 12:20:05;;;;;;;5.87;3.27;;;29.70;87.30;;;;;;5050212;28;20409;-71
2023/07/11 12:22:37;;;;;;;5.07;3.50;;;29.80;87.80;;;;;;5049760;28;20452;-71
2023/07/11 12:25:06;;;;;;;3.83;3.47;;;29.90;86.00;;;;;;5048992;28;20415;-71
2023/07/11 12:27:34;;;;;;;5.50;3.40;;;29.90;85.00;;;;;;5052658;28;20416;-71
2023/07/11 12:30:00;;;;;;;4.00;3.43;;;30.00;87.20;;;;;;5049464;28;20413;-71
2023/07/11 12:32:31;;;;;;;4.07;3.63;;;30.00;86.80;;;;;;5049512;28;20844;-71
2023/07/11 12:35:19;;;;;;;4.30;3.23;;;30.10;86.10;;;;;;5046091;28;20186;-71
2023/07/11 12:37:59;;;;;;;4.20;3.80;;;30.10;83.00;;;;;;5046332;28;20413;-71
2023/07/11 12:40:51;;;;;;;7.80;3.27;;;30.10;85.10;;;;;;5049752;28;20412;-70
2023/07/11 12:43:30;;;;;;;4.30;3.50;;;30.10;84.40;;;;;;5049208;28;20424;-70
2023/07/11 12:46:03;;;;;;;5.30;3.50;;;30.10;82.60;;;;;;5049466;28;20451;-71
2023/07/11 12:48:37;;;;;;;3.70;3.30;;;30.10;85.10;;;;;;5049631;28;20495;-71
2023/07/11 12:51:22;;;;;;;4.20;3.57;;;30.10;87.40;;;;;;5049621;28;20433;-71
2023/07/11 12:54:21;;;;;;;5.30;3.93;;;30.20;84.00;;;;;;5044289;28;20507;-71
2023/07/11 12:56:49;;;;;;;4.47;3.60;;;30.20;84.30;;;;;;5005769;28;20432;-71
2023/07/11 12:59:33;;;;;;;5.13;4.00;;;30.20;81.80;;;;;;5049494;28;20706;-70
2023/07/11 13:02:01;;;;;;;4.47;3.53;;;30.30;82.60;;;;;;5045548;28;20470;-71